• Join FlightAware (Why Join?)
  • Login
  • US Flag 
10:47AM EDT


 

Airport Tracker/Info


-or-


 

Live Flight TrackerFlight Track Log ✈ CSC8717 ✈ 10-Jan-2014 ✈ ZUMY / MIG - ZLXN / XNN

Flight Track Log - Related Links

Times and Time Zones

All times are in EST time to prevent confusion due to time zone crossing. See the CSC8717 flight status page for this flight to view local times or setup timezone preferences in your user account.

Time Position Orientation Groundspeed Altitude Reporting Facility
EST Latitude Longitude Course Direction KTS MPH feet Rate Location/Type
11:12PM 31.7839 104.5638 337° Northwest  Level Estimated
11:13PM 31.8550 104.5282 337° Northwest  Level Estimated
11:14PM 31.9262 104.4925 337° Northwest  Level Estimated
11:15PM 31.9973 104.4568 337° Northwest  Level Estimated
11:16PM 32.0684 104.4210 337° Northwest  Level Estimated
11:17PM 32.1395 104.3852 337° Northwest  Level Estimated
11:18PM 32.2106 104.3493 337° Northwest  Level Estimated
11:19PM 32.2817 104.3133 337° Northwest  Level Estimated
11:20PM 32.3527 104.2773 337° Northwest  Level Estimated
11:21PM 32.4238 104.2412 337° Northwest  Level Estimated
11:22PM 32.4948 104.2051 337° Northwest  Level Estimated
11:23PM 32.5659 104.1689 337° Northwest  Level Estimated
11:24PM 32.6369 104.1327 337° Northwest  Level Estimated
11:25PM 32.7079 104.0964 337° Northwest  Level Estimated
11:26PM 32.7789 104.0600 337° Northwest  Level Estimated
11:27PM 32.8499 104.0236 337° Northwest  Level Estimated
11:28PM 32.9209 103.9871 337° Northwest  Level Estimated
11:29PM 32.9918 103.9506 337° Northwest  Level Estimated
11:30PM 33.0628 103.9140 337° Northwest  Level Estimated
11:31PM 33.1338 103.8774 337° Northwest  Level Estimated
11:32PM 33.2047 103.8407 337° Northwest  Level Estimated
11:33PM 33.2756 103.8039 337° Northwest  Level Estimated
11:34PM 33.3465 103.7671 337° Northwest  Level Estimated
11:35PM 33.4174 103.7302 337° Northwest  Level Estimated
11:36PM 33.4883 103.6932 337° Northwest  Level Estimated
11:37PM 33.5592 103.6562 336° Northwest  Level Estimated
11:38PM 33.6301 103.6191 336° Northwest  Level Estimated
11:39PM 33.7010 103.5820 336° Northwest  Level Estimated
11:40PM 33.7718 103.5448 336° Northwest  Level Estimated
11:41PM 33.8427 103.5076 336° Northwest  Level Estimated
11:42PM 33.9135 103.4703 336° Northwest  Level Estimated
11:43PM 33.9843 103.4329 336° Northwest  Level Estimated
11:44PM 34.0551 103.3954 336° Northwest  Level Estimated
11:45PM 34.1259 103.3579 336° Northwest  Level Estimated
11:46PM 34.1967 103.3204 336° Northwest  Level Estimated
11:47PM 34.2675 103.2827 336° Northwest  Level Estimated
11:48PM 34.3382 103.2450 336° Northwest  Level Estimated
11:49PM 34.4090 103.2073 336° Northwest  Level Estimated
11:50PM 34.4797 103.1695 336° Northwest  Level Estimated
11:51PM 34.5504 103.1316 336° Northwest  Level Estimated
11:52PM 34.6212 103.0937 336° Northwest  Level Estimated
11:53PM 34.6919 103.0556 336° Northwest  Level Estimated
11:54PM 34.7626 103.0176 336° Northwest  Level Estimated
11:55PM 34.8332 102.9794 336° Northwest  Level Estimated
11:56PM 34.9039 102.9412 336° Northwest  Level Estimated
11:57PM 34.9746 102.9029 336° Northwest  Level Estimated
11:58PM 35.0452 102.8646 336° Northwest  Level Estimated
11:59PM 35.1158 102.8262 336° Northwest  Level Estimated
12:00AM 35.1865 102.7877 336° Northwest  Level Estimated
12:01AM 35.2571 102.7492 336° Northwest  Level Estimated
12:02AM 35.3277 102.7106 336° Northwest  Level Estimated
12:03AM 35.3982 102.6719 336° Northwest  Level Estimated
12:04AM 35.4688 102.6332 336° Northwest  Level Estimated
12:05AM 35.5394 102.5944 336° Northwest  Level Estimated
12:06AM 35.6099 102.5555 336° Northwest  Level Estimated
12:07AM 35.6805 102.5165 336° Northwest  Level Estimated
12:08AM 35.7510 102.4775 336° Northwest  Level Estimated
12:09AM 35.8215 102.4384 336° Northwest  Level Estimated
12:10AM 35.8920 102.3993 336° Northwest  Level Estimated
12:11AM 35.9625 102.3601 336° Northwest  Level Estimated
12:12AM 36.0329 102.3208 336° Northwest  Level Estimated
12:13AM 36.1034 102.2814 336° Northwest  Level Estimated
12:14AM 36.1738 102.2420 336° Northwest  Level Estimated
12:15AM 36.2443 102.2024 336° Northwest  Level Estimated
12:16AM 36.3147 102.1629 336° Northwest  Level Estimated
12:17AM 36.3851 102.1232 336° Northwest  Level Estimated
12:18AM 36.4555 102.0835 336° Northwest  Level Estimated
12:19AM 36.5259 102.0437 336° Northwest  Level Estimated
12:20AM 36.5275 102.0428 335° Northwest  Level Estimated
12:21AM 36.5275 102.0428 270° West  Level Estimated
12:22AM 36.5275 102.0428 270° West  Level Estimated
12:23AM 36.5275 102.0428 270° West  Level Estimated
12:24AM 36.5275 102.0428 270° West  Level Estimated
12:25AM 36.5275 102.0428 270° West  Level Estimated
12:26AM 36.5275 102.0428 270° West  Level Estimated
12:27AM 36.5275 102.0428 270° West  Level Estimated
12:28AM 36.5275 102.0428 270° West  Level Estimated
12:29AM 36.5275 102.0428 270° West  Level Estimated
12:30AM 36.5275 102.0428 270° West  Level Estimated
12:31AM 36.5275 102.0428 270° West  Level Estimated
12:32AM 36.5275 102.0428 270° West  Level Estimated
12:33AM 36.5275 102.0428 270° West  Level Estimated
12:34AM 36.5275 102.0428 270° West  Level Estimated
12:35AM 36.5275 102.0428 270° West  Level Estimated